sensor_id;sensor_type;location;lat;lon;timestamp;temperature;humidity
25188;DHT22;13141;50.414;8.050;2023-04-12T00:00:51;10.50;99.90
25188;DHT22;13141;50.414;8.050;2023-04-12T00:03:18;10.40;99.90
25188;DHT22;13141;50.414;8.050;2023-04-12T00:05:45;10.40;99.90
25188;DHT22;13141;50.414;8.050;2023-04-12T00:08:11;10.20;99.90
25188;DHT22;13141;50.414;8.050;2023-04-12T00:10:37;10.20;99.90
25188;DHT22;13141;50.414;8.050;2023-04-12T00:13:03;10.20;99.90
25188;DHT22;13141;50.414;8.050;2023-04-12T00:15:29;10.10;99.90
25188;DHT22;13141;50.414;8.050;2023-04-12T00:17:54;10.10;99.90
25188;DHT22;13141;50.414;8.050;2023-04-12T00:20:22;10.20;99.90
25188;DHT22;13141;50.414;8.050;2023-04-12T00:22:47;10.20;99.90
25188;DHT22;13141;50.414;8.050;2023-04-12T00:25:13;10.10;99.90
25188;DHT22;13141;50.414;8.050;2023-04-12T00:27:39;10.20;99.90
25188;DHT22;13141;50.414;8.050;2023-04-12T00:30:07;10.10;99.90
25188;DHT22;13141;50.414;8.050;2023-04-12T00:32:33;9.80;99.90
25188;DHT22;13141;50.414;8.050;2023-04-12T00:34:59;10.30;99.90
25188;DHT22;13141;50.414;8.050;2023-04-12T00:37:26;10.20;99.90
25188;DHT22;13141;50.414;8.050;2023-04-12T00:39:52;10.10;99.90
25188;DHT22;13141;50.414;8.050;2023-04-12T00:42:17;10.20;99.90
25188;DHT22;13141;50.414;8.050;2023-04-12T00:44:43;10.20;99.90
25188;DHT22;13141;50.414;8.050;2023-04-12T00:47:08;10.20;99.90
25188;DHT22;13141;50.414;8.050;2023-04-12T00:49:34;10.40;99.90
25188;DHT22;13141;50.414;8.050;2023-04-12T00:52:03;10.10;99.90
25188;DHT22;13141;50.414;8.050;2023-04-12T00:54:30;10.00;99.90
25188;DHT22;13141;50.414;8.050;2023-04-12T00:56:57;10.10;99.90
25188;DHT22;13141;50.414;8.050;2023-04-12T00:59:24;10.10;99.90
25188;DHT22;13141;50.414;8.050;2023-04-12T01:01:50;10.10;99.90
25188;DHT22;13141;50.414;8.050;2023-04-12T01:04:16;10.00;99.90
25188;DHT22;13141;50.414;8.050;2023-04-12T01:06:51;9.90;99.90
25188;DHT22;13141;50.414;8.050;2023-04-12T01:09:29;9.80;99.90
25188;DHT22;13141;50.414;8.050;2023-04-12T01:12:04;9.80;99.90
25188;DHT22;13141;50.414;8.050;2023-04-12T01:14:41;9.60;99.90
25188;DHT22;13141;50.414;8.050;2023-04-12T01:17:10;9.60;99.90
25188;DHT22;13141;50.414;8.050;2023-04-12T01:19:47;9.60;99.90
25188;DHT22;13141;50.414;8.050;2023-04-12T01:22:23;9.60;99.90
25188;DHT22;13141;50.414;8.050;2023-04-12T01:25:02;9.70;99.90
25188;DHT22;13141;50.414;8.050;2023-04-12T01:27:37;9.50;99.90
25188;DHT22;13141;50.414;8.050;2023-04-12T01:30:05;9.50;99.90
25188;DHT22;13141;50.414;8.050;2023-04-12T01:32:33;9.60;99.90
25188;DHT22;13141;50.414;8.050;2023-04-12T01:35:02;9.80;99.90
25188;DHT22;13141;50.414;8.050;2023-04-12T01:37:29;9.70;99.90
25188;DHT22;13141;50.414;8.050;2023-04-12T01:39:55;9.70;99.90
25188;DHT22;13141;50.414;8.050;2023-04-12T01:42:21;9.50;99.90
25188;DHT22;13141;50.414;8.050;2023-04-12T01:44:49;9.40;99.90
25188;DHT22;13141;50.414;8.050;2023-04-12T01:47:14;9.30;99.90
25188;DHT22;13141;50.414;8.050;2023-04-12T01:49:48;9.40;99.90
25188;DHT22;13141;50.414;8.050;2023-04-12T01:52:19;9.30;99.90
25188;DHT22;13141;50.414;8.050;2023-04-12T01:54:50;9.30;99.90
25188;DHT22;13141;50.414;8.050;2023-04-12T01:57:18;9.30;99.90
25188;DHT22;13141;50.414;8.050;2023-04-12T01:59:45;9.30;99.90
25188;DHT22;13141;50.414;8.050;2023-04-12T02:02:14;9.50;99.90
25188;DHT22;13141;50.414;8.050;2023-04-12T02:04:41;9.50;99.90
25188;DHT22;13141;50.414;8.050;2023-04-12T02:07:07;9.30;99.90
25188;DHT22;13141;50.414;8.050;2023-04-12T02:09:35;9.50;99.90
25188;DHT22;13141;50.414;8.050;2023-04-12T02:12:01;9.50;99.90
25188;DHT22;13141;50.414;8.050;2023-04-12T02:14:26;9.20;99.90
25188;DHT22;13141;50.414;8.050;2023-04-12T02:16:52;9.20;99.90
25188;DHT22;13141;50.414;8.050;2023-04-12T02:19:19;9.20;99.90
25188;DHT22;13141;50.414;8.050;2023-04-12T02:21:45;9.20;99.90
25188;DHT22;13141;50.414;8.050;2023-04-12T02:24:11;9.20;99.90
25188;DHT22;13141;50.414;8.050;2023-04-12T02:26:37;9.50;99.90
25188;DHT22;13141;50.414;8.050;2023-04-12T02:29:03;9.30;99.90
25188;DHT22;13141;50.414;8.050;2023-04-12T02:31:29;9.30;99.90
25188;DHT22;13141;50.414;8.050;2023-04-12T02:33:55;9.20;99.90
25188;DHT22;13141;50.414;8.050;2023-04-12T02:36:22;9.20;99.90
25188;DHT22;13141;50.414;8.050;2023-04-12T02:38:47;9.40;99.90
25188;DHT22;13141;50.414;8.050;2023-04-12T02:41:16;9.20;99.90
25188;DHT22;13141;50.414;8.050;2023-04-12T02:43:42;9.20;99.90
25188;DHT22;13141;50.414;8.050;2023-04-12T02:46:08;9.40;99.90
25188;DHT22;13141;50.414;8.050;2023-04-12T02:48:33;9.20;99.90
25188;DHT22;13141;50.414;8.050;2023-04-12T02:50:59;9.40;99.90
25188;DHT22;13141;50.414;8.050;2023-04-12T02:53:26;9.10;99.90
25188;DHT22;13141;50.414;8.050;2023-04-12T02:55:51;9.10;99.90
25188;DHT22;13141;50.414;8.050;2023-04-12T02:58:17;9.00;99.90
25188;DHT22;13141;50.414;8.050;2023-04-12T03:00:44;9.20;99.90
25188;DHT22;13141;50.414;8.050;2023-04-12T03:03:10;9.10;99.90
25188;DHT22;13141;50.414;8.050;2023-04-12T03:05:36;9.00;99.90
25188;DHT22;13141;50.414;8.050;2023-04-12T03:08:01;8.90;99.90
25188;DHT22;13141;50.414;8.050;2023-04-12T03:10:28;8.90;99.90
25188;DHT22;13141;50.414;8.050;2023-04-12T03:12:54;8.90;99.90
25188;DHT22;13141;50.414;8.050;2023-04-12T03:15:20;8.90;99.90
25188;DHT22;13141;50.414;8.050;2023-04-12T03:17:45;8.90;99.90
25188;DHT22;13141;50.414;8.050;2023-04-12T03:20:11;9.00;99.90
25188;DHT22;13141;50.414;8.050;2023-04-12T03:22:37;9.00;99.90
25188;DHT22;13141;50.414;8.050;2023-04-12T03:25:03;8.90;99.90
25188;DHT22;13141;50.414;8.050;2023-04-12T03:27:31;8.90;99.90
25188;DHT22;13141;50.414;8.050;2023-04-12T03:29:56;8.90;99.90
25188;DHT22;13141;50.414;8.050;2023-04-12T03:32:22;8.90;99.90
25188;DHT22;13141;50.414;8.050;2023-04-12T03:34:48;8.90;99.90
25188;DHT22;13141;50.414;8.050;2023-04-12T03:37:14;8.80;99.90
25188;DHT22;13141;50.414;8.050;2023-04-12T03:39:39;8.80;99.90
25188;DHT22;13141;50.414;8.050;2023-04-12T03:42:05;8.90;99.90
25188;DHT22;13141;50.414;8.050;2023-04-12T03:44:32;8.90;99.90
25188;DHT22;13141;50.414;8.050;2023-04-12T03:46:58;8.90;99.90
25188;DHT22;13141;50.414;8.050;2023-04-12T03:49:23;8.90;99.90
25188;DHT22;13141;50.414;8.050;2023-04-12T03:51:49;9.10;99.90
25188;DHT22;13141;50.414;8.050;2023-04-12T03:54:15;8.90;99.90
25188;DHT22;13141;50.414;8.050;2023-04-12T03:56:40;8.80;99.90
25188;DHT22;13141;50.414;8.050;2023-04-12T03:59:06;8.80;99.90
25188;DHT22;13141;50.414;8.050;2023-04-12T04:01:34;8.80;99.90
25188;DHT22;13141;50.414;8.050;2023-04-12T04:04:00;8.80;99.90
25188;DHT22;13141;50.414;8.050;2023-04-12T04:06:26;8.90;99.90
25188;DHT22;13141;50.414;8.050;2023-04-12T04:08:52;8.80;99.90
25188;DHT22;13141;50.414;8.050;2023-04-12T04:11:17;8.80;99.90
25188;DHT22;13141;50.414;8.050;2023-04-12T04:13:43;8.70;99.90
25188;DHT22;13141;50.414;8.050;2023-04-12T04:16:09;8.80;99.90
25188;DHT22;13141;50.414;8.050;2023-04-12T04:18:36;8.80;99.90
25188;DHT22;13141;50.414;8.050;2023-04-12T04:21:02;8.80;99.90
25188;DHT22;13141;50.414;8.050;2023-04-12T04:23:29;8.80;99.90
25188;DHT22;13141;50.414;8.050;2023-04-12T04:25:55;9.10;99.90
25188;DHT22;13141;50.414;8.050;2023-04-12T04:28:20;8.90;99.90
25188;DHT22;13141;50.414;8.050;2023-04-12T04:30:46;8.90;99.90
25188;DHT22;13141;50.414;8.050;2023-04-12T04:33:13;8.90;99.90
25188;DHT22;13141;50.414;8.050;2023-04-12T04:35:40;8.80;99.90
25188;DHT22;13141;50.414;8.050;2023-04-12T04:38:06;8.80;99.90
25188;DHT22;13141;50.414;8.050;2023-04-12T04:40:31;8.90;99.90
25188;DHT22;13141;50.414;8.050;2023-04-12T04:42:57;8.90;99.90
25188;DHT22;13141;50.414;8.050;2023-04-12T04:45:24;8.80;99.90
25188;DHT22;13141;50.414;8.050;2023-04-12T04:47:50;8.80;99.90
25188;DHT22;13141;50.414;8.050;2023-04-12T04:50:15;8.90;99.90
25188;DHT22;13141;50.414;8.050;2023-04-12T04:52:42;9.00;99.90
25188;DHT22;13141;50.414;8.050;2023-04-12T04:55:10;8.90;99.90
25188;DHT22;13141;50.414;8.050;2023-04-12T04:57:36;8.70;99.90
25188;DHT22;13141;50.414;8.050;2023-04-12T05:00:02;8.80;99.90
25188;DHT22;13141;50.414;8.050;2023-04-12T05:02:27;8.90;99.90
25188;DHT22;13141;50.414;8.050;2023-04-12T05:04:53;9.00;99.90
25188;DHT22;13141;50.414;8.050;2023-04-12T05:07:19;9.00;99.90
25188;DHT22;13141;50.414;8.050;2023-04-12T05:09:46;9.10;99.90
25188;DHT22;13141;50.414;8.050;2023-04-12T05:12:12;9.10;99.90
25188;DHT22;13141;50.414;8.050;2023-04-12T05:14:37;9.10;99.90
25188;DHT22;13141;50.414;8.050;2023-04-12T05:17:05;9.50;99.90
25188;DHT22;13141;50.414;8.050;2023-04-12T05:19:31;9.30;99.90
25188;DHT22;13141;50.414;8.050;2023-04-12T05:21:57;9.30;99.90
25188;DHT22;13141;50.414;8.050;2023-04-12T05:24:22;9.30;99.90
25188;DHT22;13141;50.414;8.050;2023-04-12T05:26:50;9.30;99.90
25188;DHT22;13141;50.414;8.050;2023-04-12T05:29:15;9.30;99.90
25188;DHT22;13141;50.414;8.050;2023-04-12T05:31:41;9.30;99.90
25188;DHT22;13141;50.414;8.050;2023-04-12T05:34:07;9.00;99.90
25188;DHT22;13141;50.414;8.050;2023-04-12T05:36:33;9.30;99.90
25188;DHT22;13141;50.414;8.050;2023-04-12T05:38:58;9.00;99.90
25188;DHT22;13141;50.414;8.050;2023-04-12T05:41:24;9.40;99.90
25188;DHT22;13141;50.414;8.050;2023-04-12T05:43:51;9.40;99.90
25188;DHT22;13141;50.414;8.050;2023-04-12T05:46:17;9.60;99.90
25188;DHT22;13141;50.414;8.050;2023-04-12T05:48:43;9.20;99.90
25188;DHT22;13141;50.414;8.050;2023-04-12T05:51:09;9.60;99.90
25188;DHT22;13141;50.414;8.050;2023-04-12T05:53:35;9.50;99.90
25188;DHT22;13141;50.414;8.050;2023-04-12T05:56:00;9.50;99.90
25188;DHT22;13141;50.414;8.050;2023-04-12T05:58:26;9.40;99.90
25188;DHT22;13141;50.414;8.050;2023-04-12T06:00:53;9.40;99.90
25188;DHT22;13141;50.414;8.050;2023-04-12T06:03:23;8.90;99.90
25188;DHT22;13141;50.414;8.050;2023-04-12T06:05:50;9.30;99.90
25188;DHT22;13141;50.414;8.050;2023-04-12T06:08:16;9.40;99.90
25188;DHT22;13141;50.414;8.050;2023-04-12T06:10:42;9.60;99.90
25188;DHT22;13141;50.414;8.050;2023-04-12T06:13:08;9.60;99.90
25188;DHT22;13141;50.414;8.050;2023-04-12T06:15:34;9.50;99.90
25188;DHT22;13141;50.414;8.050;2023-04-12T06:18:01;9.70;99.90
25188;DHT22;13141;50.414;8.050;2023-04-12T06:20:27;9.40;99.90
25188;DHT22;13141;50.414;8.050;2023-04-12T06:22:52;9.50;99.90
25188;DHT22;13141;50.414;8.050;2023-04-12T06:25:18;9.40;99.90
25188;DHT22;13141;50.414;8.050;2023-04-12T06:27:44;9.70;99.90
25188;DHT22;13141;50.414;8.050;2023-04-12T06:30:13;9.50;99.90
25188;DHT22;13141;50.414;8.050;2023-04-12T06:32:54;9.40;99.90
25188;DHT22;13141;50.414;8.050;2023-04-12T06:35:21;9.50;99.90
25188;DHT22;13141;50.414;8.050;2023-04-12T06:37:47;9.30;99.90
25188;DHT22;13141;50.414;8.050;2023-04-12T06:40:13;9.20;99.90
25188;DHT22;13141;50.414;8.050;2023-04-12T06:42:38;9.30;99.90
25188;DHT22;13141;50.414;8.050;2023-04-12T06:45:05;9.20;99.90
25188;DHT22;13141;50.414;8.050;2023-04-12T06:47:31;9.20;99.90
25188;DHT22;13141;50.414;8.050;2023-04-12T06:49:57;9.20;99.90
25188;DHT22;13141;50.414;8.050;2023-04-12T06:52:24;9.20;99.90
25188;DHT22;13141;50.414;8.050;2023-04-12T06:54:50;9.20;99.90
25188;DHT22;13141;50.414;8.050;2023-04-12T06:57:15;9.30;99.90
25188;DHT22;13141;50.414;8.050;2023-04-12T06:59:41;9.20;99.90
25188;DHT22;13141;50.414;8.050;2023-04-12T07:02:07;9.20;99.90
25188;DHT22;13141;50.414;8.050;2023-04-12T07:04:32;9.20;99.90
25188;DHT22;13141;50.414;8.050;2023-04-12T07:06:58;9.20;99.90
25188;DHT22;13141;50.414;8.050;2023-04-12T07:09:25;9.20;99.90
25188;DHT22;13141;50.414;8.050;2023-04-12T07:11:51;9.20;99.90
25188;DHT22;13141;50.414;8.050;2023-04-12T07:14:16;9.30;99.90
25188;DHT22;13141;50.414;8.050;2023-04-12T07:16:42;9.30;99.90
25188;DHT22;13141;50.414;8.050;2023-04-12T07:19:08;9.30;99.90
25188;DHT22;13141;50.414;8.050;2023-04-12T07:21:34;9.40;99.90
25188;DHT22;13141;50.414;8.050;2023-04-12T07:23:59;9.30;99.90
25188;DHT22;13141;50.414;8.050;2023-04-12T07:26:26;9.40;99.90
25188;DHT22;13141;50.414;8.050;2023-04-12T07:28:52;9.50;99.90
25188;DHT22;13141;50.414;8.050;2023-04-12T07:31:18;9.50;99.90
25188;DHT22;13141;50.414;8.050;2023-04-12T07:33:44;9.50;99.90
25188;DHT22;13141;50.414;8.050;2023-04-12T07:36:10;9.50;99.90
25188;DHT22;13141;50.414;8.050;2023-04-12T07:38:35;9.50;99.90
25188;DHT22;13141;50.414;8.050;2023-04-12T07:41:01;9.50;99.90
25188;DHT22;13141;50.414;8.050;2023-04-12T07:43:28;9.60;99.90
25188;DHT22;13141;50.414;8.050;2023-04-12T07:45:54;9.60;99.90
25188;DHT22;13141;50.414;8.050;2023-04-12T07:48:19;9.40;99.90
25188;DHT22;13141;50.414;8.050;2023-04-12T07:50:45;9.50;99.90
25188;DHT22;13141;50.414;8.050;2023-04-12T07:53:18;9.60;99.90
25188;DHT22;13141;50.414;8.050;2023-04-12T07:55:44;9.60;99.90
25188;DHT22;13141;50.414;8.050;2023-04-12T07:58:10;9.70;99.90
25188;DHT22;13141;50.414;8.050;2023-04-12T08:00:37;9.80;99.90
25188;DHT22;13141;50.414;8.050;2023-04-12T08:03:03;9.80;99.90
25188;DHT22;13141;50.414;8.050;2023-04-12T08:05:28;9.80;99.90
25188;DHT22;13141;50.414;8.050;2023-04-12T08:07:54;9.80;99.90
25188;DHT22;13141;50.414;8.050;2023-04-12T08:10:20;9.90;99.90
25188;DHT22;13141;50.414;8.050;2023-04-12T08:12:45;9.90;99.90
25188;DHT22;13141;50.414;8.050;2023-04-12T08:15:12;9.80;99.90
25188;DHT22;13141;50.414;8.050;2023-04-12T08:17:39;9.80;99.90
25188;DHT22;13141;50.414;8.050;2023-04-12T08:20:06;9.80;99.90
25188;DHT22;13141;50.414;8.050;2023-04-12T08:22:32;9.70;99.90
25188;DHT22;13141;50.414;8.050;2023-04-12T08:24:57;9.60;99.90
25188;DHT22;13141;50.414;8.050;2023-04-12T08:27:23;9.60;99.90
25188;DHT22;13141;50.414;8.050;2023-04-12T08:32:17;9.70;99.90
25188;DHT22;13141;50.414;8.050;2023-04-12T08:34:44;9.70;99.90
25188;DHT22;13141;50.414;8.050;2023-04-12T08:37:11;9.70;99.90
25188;DHT22;13141;50.414;8.050;2023-04-12T08:39:37;9.70;99.90
25188;DHT22;13141;50.414;8.050;2023-04-12T08:42:03;9.70;99.90
25188;DHT22;13141;50.414;8.050;2023-04-12T08:44:33;9.60;99.90
25188;DHT22;13141;50.414;8.050;2023-04-12T08:47:00;9.70;99.90
25188;DHT22;13141;50.414;8.050;2023-04-12T08:49:26;9.90;99.90
25188;DHT22;13141;50.414;8.050;2023-04-12T08:51:54;9.70;99.90
25188;DHT22;13141;50.414;8.050;2023-04-12T08:54:20;9.80;99.90
25188;DHT22;13141;50.414;8.050;2023-04-12T08:56:47;9.80;99.90
25188;DHT22;13141;50.414;8.050;2023-04-12T08:59:13;9.80;99.90
25188;DHT22;13141;50.414;8.050;2023-04-12T09:01:40;9.90;99.90
25188;DHT22;13141;50.414;8.050;2023-04-12T09:04:06;9.90;99.90
25188;DHT22;13141;50.414;8.050;2023-04-12T09:06:32;9.90;99.90
25188;DHT22;13141;50.414;8.050;2023-04-12T09:08:59;9.80;99.90
25188;DHT22;13141;50.414;8.050;2023-04-12T09:11:26;9.90;99.90
25188;DHT22;13141;50.414;8.050;2023-04-12T09:13:53;9.90;99.90
25188;DHT22;13141;50.414;8.050;2023-04-12T09:16:33;10.00;99.90
25188;DHT22;13141;50.414;8.050;2023-04-12T09:18:58;10.20;99.90
25188;DHT22;13141;50.414;8.050;2023-04-12T09:21:24;10.10;99.90
25188;DHT22;13141;50.414;8.050;2023-04-12T09:24:02;10.10;99.90
25188;DHT22;13141;50.414;8.050;2023-04-12T09:26:28;10.10;99.90
25188;DHT22;13141;50.414;8.050;2023-04-12T09:28:54;10.10;99.90
25188;DHT22;13141;50.414;8.050;2023-04-12T09:31:19;10.10;99.90
25188;DHT22;13141;50.414;8.050;2023-04-12T09:33:45;10.10;99.90
25188;DHT22;13141;50.414;8.050;2023-04-12T09:36:11;10.20;99.90
25188;DHT22;13141;50.414;8.050;2023-04-12T09:38:36;10.20;99.90
25188;DHT22;13141;50.414;8.050;2023-04-12T09:41:16;10.20;99.90
25188;DHT22;13141;50.414;8.050;2023-04-12T09:43:42;10.30;99.90
25188;DHT22;13141;50.414;8.050;2023-04-12T09:46:09;10.30;99.90
25188;DHT22;13141;50.414;8.050;2023-04-12T09:48:36;10.30;99.90
25188;DHT22;13141;50.414;8.050;2023-04-12T09:51:02;10.40;99.90
25188;DHT22;13141;50.414;8.050;2023-04-12T09:53:29;10.40;99.90
25188;DHT22;13141;50.414;8.050;2023-04-12T09:55:57;10.50;99.90
25188;DHT22;13141;50.414;8.050;2023-04-12T09:58:26;10.70;99.90
25188;DHT22;13141;50.414;8.050;2023-04-12T10:00:52;10.60;99.90
25188;DHT22;13141;50.414;8.050;2023-04-12T10:03:20;10.70;99.90
25188;DHT22;13141;50.414;8.050;2023-04-12T10:05:45;10.70;99.90
25188;DHT22;13141;50.414;8.050;2023-04-12T10:08:11;10.80;99.90
25188;DHT22;13141;50.414;8.050;2023-04-12T10:10:37;10.90;99.90
25188;DHT22;13141;50.414;8.050;2023-04-12T10:13:04;10.80;99.90
25188;DHT22;13141;50.414;8.050;2023-04-12T10:15:33;10.80;99.90
25188;DHT22;13141;50.414;8.050;2023-04-12T10:18:01;10.80;99.90
25188;DHT22;13141;50.414;8.050;2023-04-12T10:20:27;10.90;99.90
25188;DHT22;13141;50.414;8.050;2023-04-12T10:22:53;10.90;99.90
25188;DHT22;13141;50.414;8.050;2023-04-12T10:25:20;10.90;99.90
25188;DHT22;13141;50.414;8.050;2023-04-12T10:27:47;11.00;99.90
25188;DHT22;13141;50.414;8.050;2023-04-12T10:30:23;11.00;99.90
25188;DHT22;13141;50.414;8.050;2023-04-12T10:33:11;11.10;99.90
25188;DHT22;13141;50.414;8.050;2023-04-12T10:35:51;11.10;99.90
25188;DHT22;13141;50.414;8.050;2023-04-12T10:38:17;11.10;99.90
25188;DHT22;13141;50.414;8.050;2023-04-12T10:41:11;11.20;99.90
25188;DHT22;13141;50.414;8.050;2023-04-12T10:43:37;11.30;99.90
25188;DHT22;13141;50.414;8.050;2023-04-12T10:46:03;11.40;99.90
25188;DHT22;13141;50.414;8.050;2023-04-12T10:48:31;11.30;99.90
25188;DHT22;13141;50.414;8.050;2023-04-12T10:51:17;11.40;99.90
25188;DHT22;13141;50.414;8.050;2023-04-12T10:53:43;11.40;99.90
25188;DHT22;13141;50.414;8.050;2023-04-12T10:56:33;11.40;99.90
25188;DHT22;13141;50.414;8.050;2023-04-12T10:59:00;11.50;99.90
25188;DHT22;13141;50.414;8.050;2023-04-12T11:01:26;11.50;99.90
25188;DHT22;13141;50.414;8.050;2023-04-12T11:04:21;11.40;99.90
25188;DHT22;13141;50.414;8.050;2023-04-12T11:06:55;11.40;99.90
25188;DHT22;13141;50.414;8.050;2023-04-12T11:09:22;11.60;99.90
25188;DHT22;13141;50.414;8.050;2023-04-12T11:11:48;11.70;99.90
25188;DHT22;13141;50.414;8.050;2023-04-12T11:14:14;11.70;99.90
25188;DHT22;13141;50.414;8.050;2023-04-12T11:19:47;11.70;99.90
25188;DHT22;13141;50.414;8.050;2023-04-12T11:22:14;11.70;99.90
25188;DHT22;13141;50.414;8.050;2023-04-12T11:24:42;11.70;99.90
25188;DHT22;13141;50.414;8.050;2023-04-12T11:27:09;11.80;99.90
25188;DHT22;13141;50.414;8.050;2023-04-12T11:29:35;11.80;99.90
25188;DHT22;13141;50.414;8.050;2023-04-12T11:32:02;11.80;99.90
25188;DHT22;13141;50.414;8.050;2023-04-12T11:34:31;11.80;99.90
25188;DHT22;13141;50.414;8.050;2023-04-12T11:36:58;11.90;99.90
25188;DHT22;13141;50.414;8.050;2023-04-12T11:39:25;11.90;99.90
25188;DHT22;13141;50.414;8.050;2023-04-12T11:41:51;12.10;99.90
25188;DHT22;13141;50.414;8.050;2023-04-12T11:44:18;12.10;99.90
25188;DHT22;13141;50.414;8.050;2023-04-12T11:46:44;12.20;99.90
25188;DHT22;13141;50.414;8.050;2023-04-12T11:49:13;12.20;99.90
25188;DHT22;13141;50.414;8.050;2023-04-12T11:51:39;12.30;99.90
25188;DHT22;13141;50.414;8.050;2023-04-12T11:54:06;12.30;99.90
25188;DHT22;13141;50.414;8.050;2023-04-12T11:56:31;12.20;99.90
25188;DHT22;13141;50.414;8.050;2023-04-12T11:58:57;12.30;99.90
25188;DHT22;13141;50.414;8.050;2023-04-12T12:01:23;12.40;99.90
25188;DHT22;13141;50.414;8.050;2023-04-12T12:03:49;12.60;99.90
25188;DHT22;13141;50.414;8.050;2023-04-12T12:06:15;12.80;99.90
25188;DHT22;13141;50.414;8.050;2023-04-12T12:08:42;12.90;99.90
25188;DHT22;13141;50.414;8.050;2023-04-12T12:11:11;13.10;99.90
25188;DHT22;13141;50.414;8.050;2023-04-12T12:13:45;13.30;99.90
25188;DHT22;13141;50.414;8.050;2023-04-12T12:16:11;13.90;99.90
25188;DHT22;13141;50.414;8.050;2023-04-12T12:18:38;14.80;99.90
25188;DHT22;13141;50.414;8.050;2023-04-12T12:21:07;15.10;99.90
25188;DHT22;13141;50.414;8.050;2023-04-12T12:23:33;15.50;99.90
25188;DHT22;13141;50.414;8.050;2023-04-12T12:26:01;15.90;99.90
25188;DHT22;13141;50.414;8.050;2023-04-12T12:28:28;15.60;99.90
25188;DHT22;13141;50.414;8.050;2023-04-12T12:30:54;15.60;99.90
25188;DHT22;13141;50.414;8.050;2023-04-12T12:33:20;15.50;99.90
25188;DHT22;13141;50.414;8.050;2023-04-12T12:35:46;15.40;99.90
25188;DHT22;13141;50.414;8.050;2023-04-12T12:38:11;15.40;99.90
25188;DHT22;13141;50.414;8.050;2023-04-12T12:40:37;15.40;99.90
25188;DHT22;13141;50.414;8.050;2023-04-12T12:43:03;15.10;99.90
25188;DHT22;13141;50.414;8.050;2023-04-12T12:45:31;14.90;99.90
25188;DHT22;13141;50.414;8.050;2023-04-12T12:47:59;15.00;99.90
25188;DHT22;13141;50.414;8.050;2023-04-12T12:50:25;15.00;99.90
25188;DHT22;13141;50.414;8.050;2023-04-12T12:52:52;15.00;99.90
25188;DHT22;13141;50.414;8.050;2023-04-12T12:55:18;15.00;99.90
25188;DHT22;13141;50.414;8.050;2023-04-12T12:57:45;14.90;99.90
25188;DHT22;13141;50.414;8.050;2023-04-12T13:00:12;14.80;99.90
25188;DHT22;13141;50.414;8.050;2023-04-12T13:02:39;14.90;99.90
25188;DHT22;13141;50.414;8.050;2023-04-12T13:05:06;15.00;99.90
25188;DHT22;13141;50.414;8.050;2023-04-12T13:07:32;15.00;99.90
25188;DHT22;13141;50.414;8.050;2023-04-12T13:09:57;14.90;99.90
25188;DHT22;13141;50.414;8.050;2023-04-12T13:12:23;14.90;99.90
25188;DHT22;13141;50.414;8.050;2023-04-12T13:14:49;14.90;99.90
25188;DHT22;13141;50.414;8.050;2023-04-12T13:17:15;15.00;99.90
25188;DHT22;13141;50.414;8.050;2023-04-12T13:19:43;14.90;99.90
25188;DHT22;13141;50.414;8.050;2023-04-12T13:22:10;15.00;99.90
25188;DHT22;13141;50.414;8.050;2023-04-12T13:24:36;14.90;99.90
25188;DHT22;13141;50.414;8.050;2023-04-12T13:27:02;14.90;99.90
25188;DHT22;13141;50.414;8.050;2023-04-12T13:29:28;15.00;99.90
25188;DHT22;13141;50.414;8.050;2023-04-12T13:31:54;14.90;99.90
25188;DHT22;13141;50.414;8.050;2023-04-12T13:34:21;14.80;99.90
25188;DHT22;13141;50.414;8.050;2023-04-12T13:36:48;14.70;99.90
25188;DHT22;13141;50.414;8.050;2023-04-12T13:39:14;14.70;99.90
25188;DHT22;13141;50.414;8.050;2023-04-12T13:41:40;14.70;99.90
25188;DHT22;13141;50.414;8.050;2023-04-12T13:44:05;14.80;99.90
25188;DHT22;13141;50.414;8.050;2023-04-12T13:46:31;14.70;99.90
25188;DHT22;13141;50.414;8.050;2023-04-12T13:48:57;14.70;99.90
25188;DHT22;13141;50.414;8.050;2023-04-12T13:51:23;14.70;99.90
25188;DHT22;13141;50.414;8.050;2023-04-12T13:53:50;14.80;99.90
25188;DHT22;13141;50.414;8.050;2023-04-12T13:56:16;15.20;99.90
25188;DHT22;13141;50.414;8.050;2023-04-12T13:58:42;15.80;99.90
25188;DHT22;13141;50.414;8.050;2023-04-12T14:01:09;16.30;99.90
25188;DHT22;13141;50.414;8.050;2023-04-12T14:03:35;16.90;99.90
25188;DHT22;13141;50.414;8.050;2023-04-12T14:06:00;16.90;99.90
25188;DHT22;13141;50.414;8.050;2023-04-12T14:08:27;16.50;99.90
25188;DHT22;13141;50.414;8.050;2023-04-12T14:10:54;16.30;99.90
25188;DHT22;13141;50.414;8.050;2023-04-12T14:13:20;16.00;99.90
25188;DHT22;13141;50.414;8.050;2023-04-12T14:15:46;15.80;99.90
25188;DHT22;13141;50.414;8.050;2023-04-12T14:18:12;15.60;99.90
25188;DHT22;13141;50.414;8.050;2023-04-12T14:20:37;15.50;99.90
25188;DHT22;13141;50.414;8.050;2023-04-12T14:23:03;15.30;99.90
25188;DHT22;13141;50.414;8.050;2023-04-12T14:25:29;15.20;99.90
25188;DHT22;13141;50.414;8.050;2023-04-12T14:27:56;15.10;99.90
25188;DHT22;13141;50.414;8.050;2023-04-12T14:30:22;15.00;99.90
25188;DHT22;13141;50.414;8.050;2023-04-12T14:32:47;14.90;99.90
25188;DHT22;13141;50.414;8.050;2023-04-12T14:35:13;14.90;99.90
25188;DHT22;13141;50.414;8.050;2023-04-12T14:37:38;14.80;99.90
25188;DHT22;13141;50.414;8.050;2023-04-12T14:40:05;14.60;99.90
25188;DHT22;13141;50.414;8.050;2023-04-12T14:42:31;14.80;99.90
25188;DHT22;13141;50.414;8.050;2023-04-12T14:44:59;14.80;99.90
25188;DHT22;13141;50.414;8.050;2023-04-12T14:47:24;14.80;99.90
25188;DHT22;13141;50.414;8.050;2023-04-12T14:49:50;14.80;99.90
25188;DHT22;13141;50.414;8.050;2023-04-12T14:52:16;14.70;99.90
25188;DHT22;13141;50.414;8.050;2023-04-12T14:54:41;14.70;99.90
25188;DHT22;13141;50.414;8.050;2023-04-12T14:57:07;14.50;99.90
25188;DHT22;13141;50.414;8.050;2023-04-12T14:59:33;14.50;99.90
25188;DHT22;13141;50.414;8.050;2023-04-12T15:02:00;14.50;99.90
25188;DHT22;13141;50.414;8.050;2023-04-12T15:04:25;14.50;99.90
25188;DHT22;13141;50.414;8.050;2023-04-12T15:06:51;14.50;99.90
25188;DHT22;13141;50.414;8.050;2023-04-12T15:09:17;14.50;99.90
25188;DHT22;13141;50.414;8.050;2023-04-12T15:11:42;14.60;99.90
25188;DHT22;13141;50.414;8.050;2023-04-12T15:14:08;14.70;99.90
25188;DHT22;13141;50.414;8.050;2023-04-12T15:16:34;14.80;99.90
25188;DHT22;13141;50.414;8.050;2023-04-12T15:19:01;14.70;99.90
25188;DHT22;13141;50.414;8.050;2023-04-12T15:21:27;14.70;99.90
25188;DHT22;13141;50.414;8.050;2023-04-12T15:23:53;14.60;99.90
25188;DHT22;13141;50.414;8.050;2023-04-12T15:26:19;14.50;99.90
25188;DHT22;13141;50.414;8.050;2023-04-12T15:28:44;14.60;99.90
25188;DHT22;13141;50.414;8.050;2023-04-12T15:31:10;14.80;99.90
25188;DHT22;13141;50.414;8.050;2023-04-12T15:33:36;14.80;99.90
25188;DHT22;13141;50.414;8.050;2023-04-12T15:36:04;14.70;99.90
25188;DHT22;13141;50.414;8.050;2023-04-12T15:38:30;14.70;99.90
25188;DHT22;13141;50.414;8.050;2023-04-12T15:40:57;15.10;99.90
25188;DHT22;13141;50.414;8.050;2023-04-12T15:43:23;15.50;99.90